sensor_id;sensor_type;location;lat;lon;timestamp;P1;durP1;ratioP1;P2;durP2;ratioP2
49946;SDS011;35839;48.662;13.300;2023-08-07T00:02:20;1.88;;;1.35;;
49946;SDS011;35839;48.662;13.300;2023-08-07T00:04:45;2.17;;;1.60;;
49946;SDS011;35839;48.662;13.300;2023-08-07T00:07:11;2.63;;;1.70;;
49946;SDS011;35839;48.662;13.300;2023-08-07T00:09:36;3.38;;;1.80;;
49946;SDS011;35839;48.662;13.300;2023-08-07T00:12:01;3.10;;;1.42;;
49946;SDS011;35839;48.662;13.300;2023-08-07T00:14:28;2.40;;;1.50;;
49946;SDS011;35839;48.662;13.300;2023-08-07T00:16:53;2.90;;;1.52;;
49946;SDS011;35839;48.662;13.300;2023-08-07T00:19:18;3.47;;;2.00;;
49946;SDS011;35839;48.662;13.300;2023-08-07T00:21:44;3.90;;;1.92;;
49946;SDS011;35839;48.662;13.300;2023-08-07T00:24:09;2.67;;;1.60;;
49946;SDS011;35839;48.662;13.300;2023-08-07T00:26:34;2.03;;;1.42;;
49946;SDS011;35839;48.662;13.300;2023-08-07T00:29:00;3.95;;;1.77;;
49946;SDS011;35839;48.662;13.300;2023-08-07T00:31:25;4.97;;;1.42;;
49946;SDS011;35839;48.662;13.300;2023-08-07T00:33:50;4.65;;;1.85;;
49946;SDS011;35839;48.662;13.300;2023-08-07T00:36:19;4.53;;;2.30;;
49946;SDS011;35839;48.662;13.300;2023-08-07T00:38:44;2.13;;;1.70;;
49946;SDS011;35839;48.662;13.300;2023-08-07T00:41:09;2.75;;;1.42;;
49946;SDS011;35839;48.662;13.300;2023-08-07T00:43:35;1.67;;;1.40;;
49946;SDS011;35839;48.662;13.300;2023-08-07T00:46:00;2.40;;;1.55;;
49946;SDS011;35839;48.662;13.300;2023-08-07T00:48:26;5.03;;;1.85;;
49946;SDS011;35839;48.662;13.300;2023-08-07T00:50:52;4.03;;;1.55;;
49946;SDS011;35839;48.662;13.300;2023-08-07T00:53:18;3.65;;;1.98;;
49946;SDS011;35839;48.662;13.300;2023-08-07T00:55:44;3.88;;;1.77;;
49946;SDS011;35839;48.662;13.300;2023-08-07T00:58:11;4.00;;;1.52;;
49946;SDS011;35839;48.662;13.300;2023-08-07T01:00:36;4.13;;;1.63;;
49946;SDS011;35839;48.662;13.300;2023-08-07T01:03:04;2.83;;;1.70;;
49946;SDS011;35839;48.662;13.300;2023-08-07T01:05:31;2.22;;;1.60;;
49946;SDS011;35839;48.662;13.300;2023-08-07T01:07:56;4.75;;;1.65;;
49946;SDS011;35839;48.662;13.300;2023-08-07T01:10:35;2.90;;;1.45;;
49946;SDS011;35839;48.662;13.300;2023-08-07T01:13:18;4.55;;;1.77;;
49946;SDS011;35839;48.662;13.300;2023-08-07T01:15:49;2.05;;;1.58;;
49946;SDS011;35839;48.662;13.300;2023-08-07T01:18:20;3.22;;;1.90;;
49946;SDS011;35839;48.662;13.300;2023-08-07T01:20:47;3.00;;;1.58;;
49946;SDS011;35839;48.662;13.300;2023-08-07T01:23:12;4.38;;;2.00;;
49946;SDS011;35839;48.662;13.300;2023-08-07T01:25:37;2.38;;;2.00;;
49946;SDS011;35839;48.662;13.300;2023-08-07T01:28:10;6.22;;;1.80;;
49946;SDS011;35839;48.662;13.300;2023-08-07T01:30:42;4.38;;;1.90;;
49946;SDS011;35839;48.662;13.300;2023-08-07T01:33:19;3.20;;;1.98;;
49946;SDS011;35839;48.662;13.300;2023-08-07T01:35:53;3.30;;;1.58;;
49946;SDS011;35839;48.662;13.300;2023-08-07T01:38:22;3.00;;;1.58;;
49946;SDS011;35839;48.662;13.300;2023-08-07T01:40:50;2.67;;;1.50;;
49946;SDS011;35839;48.662;13.300;2023-08-07T01:43:17;4.00;;;2.00;;
49946;SDS011;35839;48.662;13.300;2023-08-07T01:45:44;3.92;;;1.98;;
49946;SDS011;35839;48.662;13.300;2023-08-07T01:48:10;2.25;;;1.45;;
49946;SDS011;35839;48.662;13.300;2023-08-07T01:50:38;2.42;;;1.63;;
49946;SDS011;35839;48.662;13.300;2023-08-07T01:53:04;5.22;;;1.55;;
49946;SDS011;35839;48.662;13.300;2023-08-07T01:55:30;3.63;;;1.42;;
49946;SDS011;35839;48.662;13.300;2023-08-07T01:57:56;4.50;;;1.63;;
49946;SDS011;35839;48.662;13.300;2023-08-07T02:00:21;4.68;;;1.50;;
49946;SDS011;35839;48.662;13.300;2023-08-07T02:02:47;1.75;;;1.45;;
49946;SDS011;35839;48.662;13.300;2023-08-07T02:05:13;1.63;;;1.23;;
49946;SDS011;35839;48.662;13.300;2023-08-07T02:07:38;1.88;;;1.65;;
49946;SDS011;35839;48.662;13.300;2023-08-07T02:10:04;2.83;;;1.15;;
49946;SDS011;35839;48.662;13.300;2023-08-07T02:12:29;3.97;;;1.42;;
49946;SDS011;35839;48.662;13.300;2023-08-07T02:14:57;3.42;;;1.40;;
49946;SDS011;35839;48.662;13.300;2023-08-07T02:17:24;2.92;;;1.73;;
49946;SDS011;35839;48.662;13.300;2023-08-07T02:19:49;2.08;;;1.15;;
49946;SDS011;35839;48.662;13.300;2023-08-07T02:22:15;2.42;;;1.40;;
49946;SDS011;35839;48.662;13.300;2023-08-07T02:24:40;1.92;;;1.13;;
49946;SDS011;35839;48.662;13.300;2023-08-07T02:27:05;2.67;;;1.17;;
49946;SDS011;35839;48.662;13.300;2023-08-07T02:29:30;1.48;;;1.20;;
49946;SDS011;35839;48.662;13.300;2023-08-07T02:31:59;4.82;;;1.17;;
49946;SDS011;35839;48.662;13.300;2023-08-07T02:34:24;2.80;;;0.93;;
49946;SDS011;35839;48.662;13.300;2023-08-07T02:36:49;1.83;;;1.08;;
49946;SDS011;35839;48.662;13.300;2023-08-07T02:39:15;0.85;;;0.77;;
49946;SDS011;35839;48.662;13.300;2023-08-07T02:41:40;2.22;;;1.10;;
49946;SDS011;35839;48.662;13.300;2023-08-07T02:44:05;2.42;;;0.80;;
49946;SDS011;35839;48.662;13.300;2023-08-07T02:46:31;1.98;;;1.13;;
49946;SDS011;35839;48.662;13.300;2023-08-07T02:48:56;2.83;;;1.00;;
49946;SDS011;35839;48.662;13.300;2023-08-07T02:51:21;1.67;;;1.30;;
49946;SDS011;35839;48.662;13.300;2023-08-07T02:53:46;2.40;;;0.88;;
49946;SDS011;35839;48.662;13.300;2023-08-07T02:56:12;2.85;;;0.88;;
49946;SDS011;35839;48.662;13.300;2023-08-07T02:58:37;1.00;;;0.90;;
49946;SDS011;35839;48.662;13.300;2023-08-07T03:01:03;2.80;;;0.80;;
49946;SDS011;35839;48.662;13.300;2023-08-07T03:03:29;1.27;;;0.88;;
49946;SDS011;35839;48.662;13.300;2023-08-07T03:05:54;3.63;;;1.30;;
49946;SDS011;35839;48.662;13.300;2023-08-07T03:08:20;0.47;;;0.47;;
49946;SDS011;35839;48.662;13.300;2023-08-07T03:10:52;2.22;;;0.60;;
49946;SDS011;35839;48.662;13.300;2023-08-07T03:13:21;1.63;;;1.00;;
49946;SDS011;35839;48.662;13.300;2023-08-07T03:15:47;1.65;;;0.88;;
49946;SDS011;35839;48.662;13.300;2023-08-07T03:18:14;1.85;;;1.05;;
49946;SDS011;35839;48.662;13.300;2023-08-07T03:20:40;5.82;;;1.20;;
49946;SDS011;35839;48.662;13.300;2023-08-07T03:23:05;1.00;;;0.80;;
49946;SDS011;35839;48.662;13.300;2023-08-07T03:25:30;2.45;;;0.93;;
49946;SDS011;35839;48.662;13.300;2023-08-07T03:27:56;2.28;;;0.77;;
49946;SDS011;35839;48.662;13.300;2023-08-07T03:30:21;1.88;;;0.95;;
49946;SDS011;35839;48.662;13.300;2023-08-07T03:32:46;1.48;;;1.02;;
49946;SDS011;35839;48.662;13.300;2023-08-07T03:35:12;1.52;;;0.90;;
49946;SDS011;35839;48.662;13.300;2023-08-07T03:37:37;1.15;;;1.00;;
49946;SDS011;35839;48.662;13.300;2023-08-07T03:40:02;1.00;;;0.90;;
49946;SDS011;35839;48.662;13.300;2023-08-07T03:42:28;1.65;;;0.80;;
49946;SDS011;35839;48.662;13.300;2023-08-07T03:44:53;1.70;;;1.02;;
49946;SDS011;35839;48.662;13.300;2023-08-07T03:47:19;2.00;;;1.13;;
49946;SDS011;35839;48.662;13.300;2023-08-07T03:49:44;1.08;;;0.85;;
49946;SDS011;35839;48.662;13.300;2023-08-07T03:52:09;1.92;;;1.10;;
49946;SDS011;35839;48.662;13.300;2023-08-07T03:54:35;1.75;;;1.17;;
49946;SDS011;35839;48.662;13.300;2023-08-07T03:57:00;1.83;;;1.02;;
49946;SDS011;35839;48.662;13.300;2023-08-07T03:59:26;2.13;;;1.08;;
49946;SDS011;35839;48.662;13.300;2023-08-07T04:01:51;15.73;;;2.75;;
49946;SDS011;35839;48.662;13.300;2023-08-07T04:04:16;19.00;;;3.47;;
49946;SDS011;35839;48.662;13.300;2023-08-07T04:06:42;8.98;;;2.17;;
49946;SDS011;35839;48.662;13.300;2023-08-07T04:09:08;1.85;;;0.82;;
49946;SDS011;35839;48.662;13.300;2023-08-07T04:11:35;2.53;;;1.77;;
49946;SDS011;35839;48.662;13.300;2023-08-07T04:14:00;2.78;;;1.35;;
49946;SDS011;35839;48.662;13.300;2023-08-07T04:16:26;1.33;;;1.08;;
49946;SDS011;35839;48.662;13.300;2023-08-07T04:18:51;1.58;;;1.05;;
49946;SDS011;35839;48.662;13.300;2023-08-07T04:21:16;3.20;;;1.20;;
49946;SDS011;35839;48.662;13.300;2023-08-07T04:23:42;5.85;;;4.32;;
49946;SDS011;35839;48.662;13.300;2023-08-07T04:26:07;59.83;;;34.22;;
49946;SDS011;35839;48.662;13.300;2023-08-07T04:28:32;48.78;;;26.13;;
49946;SDS011;35839;48.662;13.300;2023-08-07T04:30:57;25.58;;;14.88;;
49946;SDS011;35839;48.662;13.300;2023-08-07T04:33:23;20.42;;;11.77;;
49946;SDS011;35839;48.662;13.300;2023-08-07T04:35:48;10.55;;;6.53;;
49946;SDS011;35839;48.662;13.300;2023-08-07T04:38:14;5.78;;;2.40;;
49946;SDS011;35839;48.662;13.300;2023-08-07T04:40:44;5.03;;;3.20;;
49946;SDS011;35839;48.662;13.300;2023-08-07T04:43:13;4.07;;;1.92;;
49946;SDS011;35839;48.662;13.300;2023-08-07T04:45:40;4.70;;;2.55;;
49946;SDS011;35839;48.662;13.300;2023-08-07T04:48:07;1.63;;;1.08;;
49946;SDS011;35839;48.662;13.300;2023-08-07T04:50:33;2.13;;;1.33;;
49946;SDS011;35839;48.662;13.300;2023-08-07T04:52:58;1.40;;;1.10;;
49946;SDS011;35839;48.662;13.300;2023-08-07T04:55:23;6.43;;;3.42;;
49946;SDS011;35839;48.662;13.300;2023-08-07T04:57:51;3.35;;;1.45;;
49946;SDS011;35839;48.662;13.300;2023-08-07T05:00:19;1.88;;;1.50;;
49946;SDS011;35839;48.662;13.300;2023-08-07T05:02:45;17.17;;;12.23;;
49946;SDS011;35839;48.662;13.300;2023-08-07T05:05:10;17.65;;;10.70;;
49946;SDS011;35839;48.662;13.300;2023-08-07T05:07:35;3.40;;;2.13;;
49946;SDS011;35839;48.662;13.300;2023-08-07T05:10:01;9.38;;;4.32;;
49946;SDS011;35839;48.662;13.300;2023-08-07T05:12:27;4.55;;;2.50;;
49946;SDS011;35839;48.662;13.300;2023-08-07T05:14:53;2.85;;;1.83;;
49946;SDS011;35839;48.662;13.300;2023-08-07T05:17:18;3.92;;;2.40;;
49946;SDS011;35839;48.662;13.300;2023-08-07T05:19:43;3.08;;;1.70;;
49946;SDS011;35839;48.662;13.300;2023-08-07T05:22:09;3.92;;;1.33;;
49946;SDS011;35839;48.662;13.300;2023-08-07T05:24:34;6.72;;;3.95;;
49946;SDS011;35839;48.662;13.300;2023-08-07T05:27:04;3.15;;;2.30;;
49946;SDS011;35839;48.662;13.300;2023-08-07T05:29:33;3.75;;;1.35;;
49946;SDS011;35839;48.662;13.300;2023-08-07T05:31:58;2.08;;;1.50;;
49946;SDS011;35839;48.662;13.300;2023-08-07T05:34:24;2.40;;;1.50;;
49946;SDS011;35839;48.662;13.300;2023-08-07T05:36:49;3.30;;;1.15;;
49946;SDS011;35839;48.662;13.300;2023-08-07T05:39:14;2.78;;;1.40;;
49946;SDS011;35839;48.662;13.300;2023-08-07T05:41:40;1.92;;;1.13;;
49946;SDS011;35839;48.662;13.300;2023-08-07T05:44:05;1.92;;;1.30;;
49946;SDS011;35839;48.662;13.300;2023-08-07T05:46:30;7.88;;;1.45;;
49946;SDS011;35839;48.662;13.300;2023-08-07T05:48:56;1.98;;;1.05;;
49946;SDS011;35839;48.662;13.300;2023-08-07T05:51:21;5.70;;;2.13;;
49946;SDS011;35839;48.662;13.300;2023-08-07T05:53:46;2.78;;;1.00;;
49946;SDS011;35839;48.662;13.300;2023-08-07T05:56:14;2.28;;;1.33;;
49946;SDS011;35839;48.662;13.300;2023-08-07T05:58:39;2.15;;;1.15;;
49946;SDS011;35839;48.662;13.300;2023-08-07T06:01:05;3.50;;;1.27;;
49946;SDS011;35839;48.662;13.300;2023-08-07T06:03:30;3.80;;;1.10;;
49946;SDS011;35839;48.662;13.300;2023-08-07T06:05:56;3.03;;;1.05;;
49946;SDS011;35839;48.662;13.300;2023-08-07T06:08:22;1.83;;;1.15;;
49946;SDS011;35839;48.662;13.300;2023-08-07T06:10:47;2.30;;;1.27;;
49946;SDS011;35839;48.662;13.300;2023-08-07T06:13:12;2.47;;;1.65;;
49946;SDS011;35839;48.662;13.300;2023-08-07T06:15:38;2.75;;;1.35;;
49946;SDS011;35839;48.662;13.300;2023-08-07T06:18:03;1.10;;;0.98;;
49946;SDS011;35839;48.662;13.300;2023-08-07T06:20:31;1.80;;;1.30;;
49946;SDS011;35839;48.662;13.300;2023-08-07T06:22:57;1.77;;;1.35;;
49946;SDS011;35839;48.662;13.300;2023-08-07T06:25:22;2.13;;;1.20;;
49946;SDS011;35839;48.662;13.300;2023-08-07T06:27:47;1.90;;;1.75;;
49946;SDS011;35839;48.662;13.300;2023-08-07T06:30:12;2.17;;;1.60;;
49946;SDS011;35839;48.662;13.300;2023-08-07T06:32:39;1.67;;;1.35;;
49946;SDS011;35839;48.662;13.300;2023-08-07T06:35:04;3.50;;;1.45;;
49946;SDS011;35839;48.662;13.300;2023-08-07T06:37:30;3.58;;;1.60;;
49946;SDS011;35839;48.662;13.300;2023-08-07T06:39:56;1.48;;;1.10;;
49946;SDS011;35839;48.662;13.300;2023-08-07T06:42:21;2.58;;;1.30;;
49946;SDS011;35839;48.662;13.300;2023-08-07T06:44:46;2.47;;;0.95;;
49946;SDS011;35839;48.662;13.300;2023-08-07T06:47:12;2.50;;;1.10;;
49946;SDS011;35839;48.662;13.300;2023-08-07T06:49:37;2.00;;;1.20;;
49946;SDS011;35839;48.662;13.300;2023-08-07T06:52:03;2.72;;;1.15;;
49946;SDS011;35839;48.662;13.300;2023-08-07T06:54:28;2.63;;;1.20;;
49946;SDS011;35839;48.662;13.300;2023-08-07T06:56:54;10.90;;;1.20;;
49946;SDS011;35839;48.662;13.300;2023-08-07T06:59:19;1.63;;;1.27;;
49946;SDS011;35839;48.662;13.300;2023-08-07T07:01:44;1.13;;;1.08;;
49946;SDS011;35839;48.662;13.300;2023-08-07T07:04:10;2.05;;;1.17;;
49946;SDS011;35839;48.662;13.300;2023-08-07T07:06:36;2.08;;;1.48;;
49946;SDS011;35839;48.662;13.300;2023-08-07T07:09:02;1.95;;;1.05;;
49946;SDS011;35839;48.662;13.300;2023-08-07T07:11:27;1.77;;;1.25;;
49946;SDS011;35839;48.662;13.300;2023-08-07T07:13:53;2.42;;;1.30;;
49946;SDS011;35839;48.662;13.300;2023-08-07T07:16:18;2.80;;;1.20;;
49946;SDS011;35839;48.662;13.300;2023-08-07T07:18:46;2.35;;;1.25;;
49946;SDS011;35839;48.662;13.300;2023-08-07T07:21:11;9.93;;;1.77;;
49946;SDS011;35839;48.662;13.300;2023-08-07T07:23:36;2.10;;;1.20;;
49946;SDS011;35839;48.662;13.300;2023-08-07T07:26:02;5.68;;;2.05;;
49946;SDS011;35839;48.662;13.300;2023-08-07T07:28:27;10.23;;;5.22;;
49946;SDS011;35839;48.662;13.300;2023-08-07T07:30:52;3.42;;;1.40;;
49946;SDS011;35839;48.662;13.300;2023-08-07T07:33:18;2.40;;;1.48;;
49946;SDS011;35839;48.662;13.300;2023-08-07T07:35:43;4.38;;;1.90;;
49946;SDS011;35839;48.662;13.300;2023-08-07T07:38:09;2.78;;;1.63;;
49946;SDS011;35839;48.662;13.300;2023-08-07T07:40:35;1.38;;;1.27;;
49946;SDS011;35839;48.662;13.300;2023-08-07T07:43:00;3.88;;;2.30;;
49946;SDS011;35839;48.662;13.300;2023-08-07T07:45:26;1.95;;;1.38;;
49946;SDS011;35839;48.662;13.300;2023-08-07T07:47:51;2.35;;;1.75;;
49946;SDS011;35839;48.662;13.300;2023-08-07T07:50:16;3.33;;;1.77;;
49946;SDS011;35839;48.662;13.300;2023-08-07T07:52:41;3.85;;;1.95;;
49946;SDS011;35839;48.662;13.300;2023-08-07T07:55:08;5.30;;;1.88;;
49946;SDS011;35839;48.662;13.300;2023-08-07T07:57:34;3.90;;;2.17;;
49946;SDS011;35839;48.662;13.300;2023-08-07T07:59:59;6.55;;;2.25;;
49946;SDS011;35839;48.662;13.300;2023-08-07T08:02:26;3.58;;;1.98;;
49946;SDS011;35839;48.662;13.300;2023-08-07T08:04:51;4.82;;;1.92;;
49946;SDS011;35839;48.662;13.300;2023-08-07T08:07:17;3.03;;;2.17;;
49946;SDS011;35839;48.662;13.300;2023-08-07T08:09:43;3.92;;;2.50;;
49946;SDS011;35839;48.662;13.300;2023-08-07T08:12:08;4.82;;;2.33;;
49946;SDS011;35839;48.662;13.300;2023-08-07T08:14:33;6.13;;;3.30;;
49946;SDS011;35839;48.662;13.300;2023-08-07T08:16:59;5.05;;;2.55;;
49946;SDS011;35839;48.662;13.300;2023-08-07T08:19:24;5.60;;;2.42;;
49946;SDS011;35839;48.662;13.300;2023-08-07T08:21:49;4.13;;;1.75;;
49946;SDS011;35839;48.662;13.300;2023-08-07T08:24:15;4.47;;;2.17;;
49946;SDS011;35839;48.662;13.300;2023-08-07T08:26:40;3.05;;;2.40;;
49946;SDS011;35839;48.662;13.300;2023-08-07T08:29:06;4.97;;;2.00;;
49946;SDS011;35839;48.662;13.300;2023-08-07T08:31:32;8.50;;;2.38;;
49946;SDS011;35839;48.662;13.300;2023-08-07T08:33:58;2.42;;;1.83;;
49946;SDS011;35839;48.662;13.300;2023-08-07T08:36:23;7.70;;;2.17;;
49946;SDS011;35839;48.662;13.300;2023-08-07T08:38:48;5.72;;;2.70;;
49946;SDS011;35839;48.662;13.300;2023-08-07T08:41:14;3.17;;;2.08;;
49946;SDS011;35839;48.662;13.300;2023-08-07T08:43:40;3.70;;;2.97;;
49946;SDS011;35839;48.662;13.300;2023-08-07T08:46:05;5.80;;;2.45;;
49946;SDS011;35839;48.662;13.300;2023-08-07T08:48:34;7.13;;;2.63;;
49946;SDS011;35839;48.662;13.300;2023-08-07T08:51:01;6.65;;;2.00;;
49946;SDS011;35839;48.662;13.300;2023-08-07T08:53:27;8.07;;;2.45;;
49946;SDS011;35839;48.662;13.300;2023-08-07T08:55:52;6.40;;;2.30;;
49946;SDS011;35839;48.662;13.300;2023-08-07T08:58:18;4.55;;;2.08;;
49946;SDS011;35839;48.662;13.300;2023-08-07T09:00:45;6.13;;;2.25;;
49946;SDS011;35839;48.662;13.300;2023-08-07T09:03:10;6.10;;;2.15;;
49946;SDS011;35839;48.662;13.300;2023-08-07T09:05:36;4.40;;;1.88;;
49946;SDS011;35839;48.662;13.300;2023-08-07T09:08:02;3.05;;;2.35;;
49946;SDS011;35839;48.662;13.300;2023-08-07T09:10:28;4.45;;;2.53;;
49946;SDS011;35839;48.662;13.300;2023-08-07T09:13:02;3.53;;;2.30;;
49946;SDS011;35839;48.662;13.300;2023-08-07T09:15:31;4.57;;;1.92;;
49946;SDS011;35839;48.662;13.300;2023-08-07T09:17:58;3.65;;;2.20;;
49946;SDS011;35839;48.662;13.300;2023-08-07T09:20:24;6.05;;;2.78;;
49946;SDS011;35839;48.662;13.300;2023-08-07T09:22:50;4.50;;;2.35;;
49946;SDS011;35839;48.662;13.300;2023-08-07T09:25:26;4.15;;;2.20;;
49946;SDS011;35839;48.662;13.300;2023-08-07T09:27:55;3.38;;;2.03;;
49946;SDS011;35839;48.662;13.300;2023-08-07T09:30:25;3.95;;;1.83;;
49946;SDS011;35839;48.662;13.300;2023-08-07T09:32:51;2.97;;;2.08;;
49946;SDS011;35839;48.662;13.300;2023-08-07T09:35:19;4.72;;;2.22;;
49946;SDS011;35839;48.662;13.300;2023-08-07T09:40:11;4.65;;;2.50;;
49946;SDS011;35839;48.662;13.300;2023-08-07T09:42:37;3.45;;;2.05;;
49946;SDS011;35839;48.662;13.300;2023-08-07T09:45:03;3.85;;;2.25;;
49946;SDS011;35839;48.662;13.300;2023-08-07T09:47:44;3.15;;;2.42;;
49946;SDS011;35839;48.662;13.300;2023-08-07T09:50:15;2.40;;;1.98;;
49946;SDS011;35839;48.662;13.300;2023-08-07T09:52:45;4.60;;;2.03;;
49946;SDS011;35839;48.662;13.300;2023-08-07T09:55:12;5.60;;;2.42;;
49946;SDS011;35839;48.662;13.300;2023-08-07T09:57:38;5.65;;;2.25;;
49946;SDS011;35839;48.662;13.300;2023-08-07T10:00:04;8.15;;;2.33;;
49946;SDS011;35839;48.662;13.300;2023-08-07T10:02:36;3.58;;;2.78;;
49946;SDS011;35839;48.662;13.300;2023-08-07T10:05:02;4.68;;;3.03;;
49946;SDS011;35839;48.662;13.300;2023-08-07T10:07:30;5.07;;;3.10;;
49946;SDS011;35839;48.662;13.300;2023-08-07T10:09:55;5.18;;;2.60;;
49946;SDS011;35839;48.662;13.300;2023-08-07T10:12:23;3.28;;;2.28;;
49946;SDS011;35839;48.662;13.300;2023-08-07T10:14:48;6.57;;;3.00;;
49946;SDS011;35839;48.662;13.300;2023-08-07T10:17:14;5.05;;;3.03;;
49946;SDS011;35839;48.662;13.300;2023-08-07T10:19:40;6.88;;;2.58;;
49946;SDS011;35839;48.662;13.300;2023-08-07T10:22:05;7.03;;;2.72;;
49946;SDS011;35839;48.662;13.300;2023-08-07T10:24:31;7.97;;;2.63;;
49946;SDS011;35839;48.662;13.300;2023-08-07T10:27:00;5.60;;;2.50;;
49946;SDS011;35839;48.662;13.300;2023-08-07T10:29:25;4.88;;;2.78;;
49946;SDS011;35839;48.662;13.300;2023-08-07T10:31:52;6.03;;;2.97;;
49946;SDS011;35839;48.662;13.300;2023-08-07T10:34:21;7.60;;;3.00;;
49946;SDS011;35839;48.662;13.300;2023-08-07T10:36:47;5.38;;;2.58;;
49946;SDS011;35839;48.662;13.300;2023-08-07T10:39:12;6.45;;;2.80;;
49946;SDS011;35839;48.662;13.300;2023-08-07T10:41:47;7.78;;;2.65;;
49946;SDS011;35839;48.662;13.300;2023-08-07T10:44:17;4.32;;;2.70;;
49946;SDS011;35839;48.662;13.300;2023-08-07T10:46:51;6.43;;;2.50;;
49946;SDS011;35839;48.662;13.300;2023-08-07T10:49:34;4.20;;;2.33;;
49946;SDS011;35839;48.662;13.300;2023-08-07T10:54:45;5.07;;;2.22;;
49946;SDS011;35839;48.662;13.300;2023-08-07T10:57:13;8.07;;;2.40;;
49946;SDS011;35839;48.662;13.300;2023-08-07T11:02:28;4.20;;;2.38;;
49946;SDS011;35839;48.662;13.300;2023-08-07T11:04:54;4.82;;;2.53;;
49946;SDS011;35839;48.662;13.300;2023-08-07T11:07:27;5.18;;;2.65;;
49946;SDS011;35839;48.662;13.300;2023-08-07T11:09:54;4.70;;;2.88;;
49946;SDS011;35839;48.662;13.300;2023-08-07T11:12:20;6.28;;;2.78;;
49946;SDS011;35839;48.662;13.300;2023-08-07T11:14:45;6.32;;;3.10;;
49946;SDS011;35839;48.662;13.300;2023-08-07T11:17:11;7.63;;;3.17;;
49946;SDS011;35839;48.662;13.300;2023-08-07T11:19:37;8.05;;;3.42;;
49946;SDS011;35839;48.662;13.300;2023-08-07T11:22:03;5.03;;;3.50;;
49946;SDS011;35839;48.662;13.300;2023-08-07T11:24:29;7.85;;;3.25;;
49946;SDS011;35839;48.662;13.300;2023-08-07T11:26:55;5.85;;;3.15;;
49946;SDS011;35839;48.662;13.300;2023-08-07T11:29:21;4.85;;;2.70;;
49946;SDS011;35839;48.662;13.300;2023-08-07T11:31:49;8.40;;;2.83;;
49946;SDS011;35839;48.662;13.300;2023-08-07T11:34:16;5.40;;;2.70;;
49946;SDS011;35839;48.662;13.300;2023-08-07T11:36:44;4.65;;;2.92;;
49946;SDS011;35839;48.662;13.300;2023-08-07T11:39:10;5.80;;;2.80;;
49946;SDS011;35839;48.662;13.300;2023-08-07T11:41:36;9.75;;;3.53;;
49946;SDS011;35839;48.662;13.300;2023-08-07T11:44:01;7.15;;;3.17;;
49946;SDS011;35839;48.662;13.300;2023-08-07T11:46:27;6.95;;;2.88;;
49946;SDS011;35839;48.662;13.300;2023-08-07T11:48:53;6.38;;;2.67;;
49946;SDS011;35839;48.662;13.300;2023-08-07T11:51:20;6.30;;;2.95;;
49946;SDS011;35839;48.662;13.300;2023-08-07T11:53:46;6.35;;;2.47;;
49946;SDS011;35839;48.662;13.300;2023-08-07T11:56:12;3.60;;;2.47;;
49946;SDS011;35839;48.662;13.300;2023-08-07T11:58:43;6.38;;;3.00;;
49946;SDS011;35839;48.662;13.300;2023-08-07T12:01:13;4.13;;;2.42;;
49946;SDS011;35839;48.662;13.300;2023-08-07T12:03:56;5.45;;;2.30;;
49946;SDS011;35839;48.662;13.300;2023-08-07T12:06:35;5.63;;;2.65;;
49946;SDS011;35839;48.662;13.300;2023-08-07T12:09:04;8.50;;;2.70;;
49946;SDS011;35839;48.662;13.300;2023-08-07T12:11:31;6.10;;;2.50;;
49946;SDS011;35839;48.662;13.300;2023-08-07T12:13:59;4.60;;;2.17;;
49946;SDS011;35839;48.662;13.300;2023-08-07T12:16:26;3.03;;;2.17;;
49946;SDS011;35839;48.662;13.300;2023-08-07T12:18:51;5.38;;;2.03;;
49946;SDS011;35839;48.662;13.300;2023-08-07T12:21:20;4.85;;;2.40;;
49946;SDS011;35839;48.662;13.300;2023-08-07T12:23:50;7.85;;;3.25;;
49946;SDS011;35839;48.662;13.300;2023-08-07T12:26:16;5.97;;;2.30;;
49946;SDS011;35839;48.662;13.300;2023-08-07T12:28:42;6.90;;;2.40;;
49946;SDS011;35839;48.662;13.300;2023-08-07T12:31:07;11.00;;;2.03;;
49946;SDS011;35839;48.662;13.300;2023-08-07T12:33:33;3.55;;;2.03;;
49946;SDS011;35839;48.662;13.300;2023-08-07T12:35:59;7.10;;;2.33;;
49946;SDS011;35839;48.662;13.300;2023-08-07T12:38:25;6.38;;;2.42;;
49946;SDS011;35839;48.662;13.300;2023-08-07T12:40:51;6.32;;;2.45;;
49946;SDS011;35839;48.662;13.300;2023-08-07T12:43:16;4.60;;;2.42;;
49946;SDS011;35839;48.662;13.300;2023-08-07T12:45:42;4.72;;;2.53;;
49946;SDS011;35839;48.662;13.300;2023-08-07T12:48:07;5.35;;;2.10;;
49946;SDS011;35839;48.662;13.300;2023-08-07T12:50:33;4.32;;;2.35;;
49946;SDS011;35839;48.662;13.300;2023-08-07T12:52:59;3.75;;;2.33;;
49946;SDS011;35839;48.662;13.300;2023-08-07T12:55:24;4.70;;;1.80;;
49946;SDS011;35839;48.662;13.300;2023-08-07T12:57:50;4.45;;;2.15;;
49946;SDS011;35839;48.662;13.300;2023-08-07T13:00:17;3.88;;;2.45;;
49946;SDS011;35839;48.662;13.300;2023-08-07T13:02:43;4.20;;;1.70;;
49946;SDS011;35839;48.662;13.300;2023-08-07T13:05:10;2.83;;;1.70;;
49946;SDS011;35839;48.662;13.300;2023-08-07T13:07:37;5.13;;;1.63;;
49946;SDS011;35839;48.662;13.300;2023-08-07T13:10:06;3.35;;;1.60;;
49946;SDS011;35839;48.662;13.300;2023-08-07T13:12:35;4.13;;;1.88;;
49946;SDS011;35839;48.662;13.300;2023-08-07T13:15:02;4.32;;;1.75;;
49946;SDS011;35839;48.662;13.300;2023-08-07T13:17:29;7.22;;;1.80;;
49946;SDS011;35839;48.662;13.300;2023-08-07T13:19:55;2.97;;;1.83;;
49946;SDS011;35839;48.662;13.300;2023-08-07T13:22:20;4.65;;;2.00;;
49946;SDS011;35839;48.662;13.300;2023-08-07T13:24:46;3.88;;;1.65;;
49946;SDS011;35839;48.662;13.300;2023-08-07T13:27:11;4.03;;;1.50;;
49946;SDS011;35839;48.662;13.300;2023-08-07T13:29:36;3.13;;;1.92;;
49946;SDS011;35839;48.662;13.300;2023-08-07T13:32:02;4.65;;;1.58;;
49946;SDS011;35839;48.662;13.300;2023-08-07T13:34:34;3.08;;;1.30;;
49946;SDS011;35839;48.662;13.300;2023-08-07T13:36:59;2.45;;;1.35;;
49946;SDS011;35839;48.662;13.300;2023-08-07T13:39:27;3.08;;;2.35;;
49946;SDS011;35839;48.662;13.300;2023-08-07T13:41:52;2.20;;;1.95;;
49946;SDS011;35839;48.662;13.300;2023-08-07T13:44:18;3.55;;;2.28;;
49946;SDS011;35839;48.662;13.300;2023-08-07T13:46:43;4.55;;;1.98;;
49946;SDS011;35839;48.662;13.300;2023-08-07T13:49:10;3.25;;;1.92;;
49946;SDS011;35839;48.662;13.300;2023-08-07T13:51:35;3.85;;;2.60;;
49946;SDS011;35839;48.662;13.300;2023-08-07T13:54:00;3.22;;;1.77;;
49946;SDS011;35839;48.662;13.300;2023-08-07T13:56:25;2.78;;;2.03;;
49946;SDS011;35839;48.662;13.300;2023-08-07T13:58:51;6.63;;;1.95;;
49946;SDS011;35839;48.662;13.300;2023-08-07T14:01:16;1.70;;;1.35;;
49946;SDS011;35839;48.662;13.300;2023-08-07T14:03:41;3.00;;;1.98;;
49946;SDS011;35839;48.662;13.300;2023-08-07T14:06:07;5.80;;;1.83;;
49946;SDS011;35839;48.662;13.300;2023-08-07T14:08:32;5.20;;;2.70;;
49946;SDS011;35839;48.662;13.300;2023-08-07T14:10:59;4.60;;;2.00;;
49946;SDS011;35839;48.662;13.300;2023-08-07T14:13:24;5.15;;;2.42;;
49946;SDS011;35839;48.662;13.300;2023-08-07T14:15:50;4.85;;;2.22;;
49946;SDS011;35839;48.662;13.300;2023-08-07T14:18:15;4.90;;;2.28;;
49946;SDS011;35839;48.662;13.300;2023-08-07T14:20:40;4.38;;;1.88;;
49946;SDS011;35839;48.662;13.300;2023-08-07T14:23:06;4.97;;;2.03;;
49946;SDS011;35839;48.662;13.300;2023-08-07T14:25:31;4.90;;;2.03;;
49946;SDS011;35839;48.662;13.300;2023-08-07T14:27:56;2.20;;;1.88;;
49946;SDS011;35839;48.662;13.300;2023-08-07T14:30:22;2.15;;;1.60;;
49946;SDS011;35839;48.662;13.300;2023-08-07T14:32:47;4.20;;;2.55;;
49946;SDS011;35839;48.662;13.300;2023-08-07T14:35:13;4.32;;;1.83;;
49946;SDS011;35839;48.662;13.300;2023-08-07T14:37:41;3.63;;;1.52;;